sensor_id;sensor_type;location;lat;lon;timestamp;P1;durP1;ratioP1;P2;durP2;ratioP2
73296;SDS011;61524;50.938;11.396;2023-03-20T00:01:49;6.53;;;3.80;;
73296;SDS011;61524;50.938;11.396;2023-03-20T00:04:14;5.78;;;3.58;;
73296;SDS011;61524;50.938;11.396;2023-03-20T00:06:40;5.38;;;3.38;;
73296;SDS011;61524;50.938;11.396;2023-03-20T00:09:05;6.28;;;3.55;;
73296;SDS011;61524;50.938;11.396;2023-03-20T00:11:33;6.80;;;4.75;;
73296;SDS011;61524;50.938;11.396;2023-03-20T00:13:59;5.95;;;3.10;;
73296;SDS011;61524;50.938;11.396;2023-03-20T00:16:26;8.98;;;3.38;;
73296;SDS011;61524;50.938;11.396;2023-03-20T00:18:53;6.43;;;3.50;;
73296;SDS011;61524;50.938;11.396;2023-03-20T00:21:20;6.20;;;3.58;;
73296;SDS011;61524;50.938;11.396;2023-03-20T00:23:45;7.90;;;3.72;;
73296;SDS011;61524;50.938;11.396;2023-03-20T00:26:15;5.75;;;3.67;;
73296;SDS011;61524;50.938;11.396;2023-03-20T00:28:43;7.50;;;3.42;;
73296;SDS011;61524;50.938;11.396;2023-03-20T00:31:21;6.13;;;3.53;;
73296;SDS011;61524;50.938;11.396;2023-03-20T00:33:46;6.32;;;3.30;;
73296;SDS011;61524;50.938;11.396;2023-03-20T00:36:11;5.57;;;3.17;;
73296;SDS011;61524;50.938;11.396;2023-03-20T00:38:37;4.93;;;3.40;;
73296;SDS011;61524;50.938;11.396;2023-03-20T00:41:02;4.63;;;3.00;;
73296;SDS011;61524;50.938;11.396;2023-03-20T00:43:29;5.20;;;3.03;;
73296;SDS011;61524;50.938;11.396;2023-03-20T00:45:55;7.43;;;3.35;;
73296;SDS011;61524;50.938;11.396;2023-03-20T00:48:21;23.90;;;4.18;;
73296;SDS011;61524;50.938;11.396;2023-03-20T00:50:46;8.83;;;2.93;;
73296;SDS011;61524;50.938;11.396;2023-03-20T00:53:11;41.42;;;3.78;;
73296;SDS011;61524;50.938;11.396;2023-03-20T00:55:37;30.13;;;3.37;;
73296;SDS011;61524;50.938;11.396;2023-03-20T00:58:03;14.15;;;3.13;;
73296;SDS011;61524;50.938;11.396;2023-03-20T01:02:57;6.53;;;3.33;;
73296;SDS011;61524;50.938;11.396;2023-03-20T01:05:23;5.10;;;3.25;;
73296;SDS011;61524;50.938;11.396;2023-03-20T01:07:49;5.15;;;3.45;;
73296;SDS011;61524;50.938;11.396;2023-03-20T01:10:15;9.05;;;3.88;;
73296;SDS011;61524;50.938;11.396;2023-03-20T01:12:40;7.07;;;3.70;;
73296;SDS011;61524;50.938;11.396;2023-03-20T01:15:22;5.93;;;3.60;;
73296;SDS011;61524;50.938;11.396;2023-03-20T01:17:49;6.05;;;3.67;;
73296;SDS011;61524;50.938;11.396;2023-03-20T01:20:25;5.28;;;3.08;;
73296;SDS011;61524;50.938;11.396;2023-03-20T01:22:51;6.63;;;3.55;;
73296;SDS011;61524;50.938;11.396;2023-03-20T01:25:16;4.93;;;3.38;;
73296;SDS011;61524;50.938;11.396;2023-03-20T01:27:49;6.10;;;3.90;;
73296;SDS011;61524;50.938;11.396;2023-03-20T01:30:16;7.57;;;3.85;;
73296;SDS011;61524;50.938;11.396;2023-03-20T01:32:42;5.68;;;3.78;;
73296;SDS011;61524;50.938;11.396;2023-03-20T01:35:10;6.50;;;3.50;;
73296;SDS011;61524;50.938;11.396;2023-03-20T01:37:36;6.05;;;3.85;;
73296;SDS011;61524;50.938;11.396;2023-03-20T01:40:01;6.47;;;4.07;;
73296;SDS011;61524;50.938;11.396;2023-03-20T01:42:26;9.15;;;3.88;;
73296;SDS011;61524;50.938;11.396;2023-03-20T01:44:52;6.45;;;3.97;;
73296;SDS011;61524;50.938;11.396;2023-03-20T01:47:19;6.15;;;3.65;;
73296;SDS011;61524;50.938;11.396;2023-03-20T01:52:28;5.90;;;3.63;;
73296;SDS011;61524;50.938;11.396;2023-03-20T01:54:54;8.10;;;4.03;;
73296;SDS011;61524;50.938;11.396;2023-03-20T01:57:19;12.57;;;7.40;;
73296;SDS011;61524;50.938;11.396;2023-03-20T01:59:47;9.65;;;5.25;;
73296;SDS011;61524;50.938;11.396;2023-03-20T02:02:14;12.02;;;6.97;;
73296;SDS011;61524;50.938;11.396;2023-03-20T02:04:42;11.48;;;6.72;;
73296;SDS011;61524;50.938;11.396;2023-03-20T02:07:10;11.77;;;6.43;;
73296;SDS011;61524;50.938;11.396;2023-03-20T02:09:36;8.68;;;5.35;;
73296;SDS011;61524;50.938;11.396;2023-03-20T02:12:02;10.70;;;4.68;;
73296;SDS011;61524;50.938;11.396;2023-03-20T02:14:28;6.43;;;4.20;;
73296;SDS011;61524;50.938;11.396;2023-03-20T02:16:53;7.60;;;4.50;;
73296;SDS011;61524;50.938;11.396;2023-03-20T02:19:30;6.97;;;4.38;;
73296;SDS011;61524;50.938;11.396;2023-03-20T02:40:00;5.45;;;3.33;;
73296;SDS011;61524;50.938;11.396;2023-03-20T02:47:46;7.22;;;3.67;;
73296;SDS011;61524;50.938;11.396;2023-03-20T02:53:05;7.47;;;3.55;;
73296;SDS011;61524;50.938;11.396;2023-03-20T03:00:35;6.40;;;3.80;;
73296;SDS011;61524;50.938;11.396;2023-03-20T03:05:37;6.25;;;4.03;;
73296;SDS011;61524;50.938;11.396;2023-03-20T03:08:19;6.60;;;3.90;;
73296;SDS011;61524;50.938;11.396;2023-03-20T03:10:53;6.32;;;3.55;;
73296;SDS011;61524;50.938;11.396;2023-03-20T03:13:22;7.30;;;3.88;;
73296;SDS011;61524;50.938;11.396;2023-03-20T03:15:50;6.20;;;3.70;;
73296;SDS011;61524;50.938;11.396;2023-03-20T03:20:41;7.50;;;4.22;;
73296;SDS011;61524;50.938;11.396;2023-03-20T03:23:09;5.93;;;3.05;;
73296;SDS011;61524;50.938;11.396;2023-03-20T03:25:38;5.28;;;3.33;;
73296;SDS011;61524;50.938;11.396;2023-03-20T03:28:12;5.72;;;3.25;;
73296;SDS011;61524;50.938;11.396;2023-03-20T03:30:43;7.82;;;3.70;;
73296;SDS011;61524;50.938;11.396;2023-03-20T03:33:27;6.93;;;4.10;;
73296;SDS011;61524;50.938;11.396;2023-03-20T03:35:54;9.45;;;5.00;;
73296;SDS011;61524;50.938;11.396;2023-03-20T03:38:44;7.78;;;4.85;;
73296;SDS011;61524;50.938;11.396;2023-03-20T03:43:55;5.95;;;3.60;;
73296;SDS011;61524;50.938;11.396;2023-03-20T03:46:24;5.93;;;4.00;;
73296;SDS011;61524;50.938;11.396;2023-03-20T03:48:52;6.88;;;3.97;;
73296;SDS011;61524;50.938;11.396;2023-03-20T03:51:20;6.10;;;3.55;;
73296;SDS011;61524;50.938;11.396;2023-03-20T03:53:49;8.45;;;3.85;;
73296;SDS011;61524;50.938;11.396;2023-03-20T03:56:17;7.72;;;4.10;;
73296;SDS011;61524;50.938;11.396;2023-03-20T03:58:45;6.55;;;4.43;;
73296;SDS011;61524;50.938;11.396;2023-03-20T04:01:11;6.57;;;3.60;;
73296;SDS011;61524;50.938;11.396;2023-03-20T04:03:50;5.00;;;3.72;;
73296;SDS011;61524;50.938;11.396;2023-03-20T04:06:16;7.00;;;4.28;;
73296;SDS011;61524;50.938;11.396;2023-03-20T04:08:42;7.38;;;4.13;;
73296;SDS011;61524;50.938;11.396;2023-03-20T04:11:17;6.38;;;3.95;;
73296;SDS011;61524;50.938;11.396;2023-03-20T04:13:43;6.50;;;4.28;;
73296;SDS011;61524;50.938;11.396;2023-03-20T04:16:11;6.00;;;4.10;;
73296;SDS011;61524;50.938;11.396;2023-03-20T04:18:37;6.95;;;5.10;;
73296;SDS011;61524;50.938;11.396;2023-03-20T04:21:02;7.18;;;4.22;;
73296;SDS011;61524;50.938;11.396;2023-03-20T04:23:27;7.32;;;4.60;;
73296;SDS011;61524;50.938;11.396;2023-03-20T04:25:53;8.00;;;4.60;;
73296;SDS011;61524;50.938;11.396;2023-03-20T04:28:18;7.13;;;4.17;;
73296;SDS011;61524;50.938;11.396;2023-03-20T04:30:43;6.35;;;3.83;;
73296;SDS011;61524;50.938;11.396;2023-03-20T04:33:12;6.32;;;3.97;;
73296;SDS011;61524;50.938;11.396;2023-03-20T04:35:37;7.88;;;3.72;;
73296;SDS011;61524;50.938;11.396;2023-03-20T04:38:02;6.03;;;3.53;;
73296;SDS011;61524;50.938;11.396;2023-03-20T04:40:28;6.67;;;4.40;;
73296;SDS011;61524;50.938;11.396;2023-03-20T04:42:53;6.10;;;3.97;;
73296;SDS011;61524;50.938;11.396;2023-03-20T04:45:19;9.63;;;3.80;;
73296;SDS011;61524;50.938;11.396;2023-03-20T04:47:44;6.88;;;4.10;;
73296;SDS011;61524;50.938;11.396;2023-03-20T04:50:10;6.97;;;4.20;;
73296;SDS011;61524;50.938;11.396;2023-03-20T04:52:36;8.52;;;4.88;;
73296;SDS011;61524;50.938;11.396;2023-03-20T04:55:01;6.73;;;4.20;;
73296;SDS011;61524;50.938;11.396;2023-03-20T04:57:26;7.77;;;4.60;;
73296;SDS011;61524;50.938;11.396;2023-03-20T04:59:52;6.75;;;4.40;;
73296;SDS011;61524;50.938;11.396;2023-03-20T05:02:17;9.07;;;5.07;;
73296;SDS011;61524;50.938;11.396;2023-03-20T05:04:43;6.73;;;4.33;;
73296;SDS011;61524;50.938;11.396;2023-03-20T05:07:08;7.10;;;4.43;;
73296;SDS011;61524;50.938;11.396;2023-03-20T05:09:34;8.93;;;4.25;;
73296;SDS011;61524;50.938;11.396;2023-03-20T05:11:59;7.10;;;4.28;;
73296;SDS011;61524;50.938;11.396;2023-03-20T05:14:24;7.70;;;4.20;;
73296;SDS011;61524;50.938;11.396;2023-03-20T05:16:50;7.73;;;4.33;;
73296;SDS011;61524;50.938;11.396;2023-03-20T05:19:15;7.30;;;4.90;;
73296;SDS011;61524;50.938;11.396;2023-03-20T05:21:41;7.20;;;4.63;;
73296;SDS011;61524;50.938;11.396;2023-03-20T05:24:06;9.83;;;4.60;;
73296;SDS011;61524;50.938;11.396;2023-03-20T05:26:32;6.97;;;4.68;;
73296;SDS011;61524;50.938;11.396;2023-03-20T05:28:57;8.20;;;4.80;;
73296;SDS011;61524;50.938;11.396;2023-03-20T05:31:22;7.07;;;4.70;;
73296;SDS011;61524;50.938;11.396;2023-03-20T05:33:47;8.03;;;4.67;;
73296;SDS011;61524;50.938;11.396;2023-03-20T05:36:13;7.23;;;4.37;;
73296;SDS011;61524;50.938;11.396;2023-03-20T05:38:38;7.80;;;4.43;;
73296;SDS011;61524;50.938;11.396;2023-03-20T05:41:03;7.00;;;4.17;;
73296;SDS011;61524;50.938;11.396;2023-03-20T05:43:30;9.02;;;4.63;;
73296;SDS011;61524;50.938;11.396;2023-03-20T05:45:55;7.43;;;4.50;;
73296;SDS011;61524;50.938;11.396;2023-03-20T05:48:21;6.22;;;4.53;;
73296;SDS011;61524;50.938;11.396;2023-03-20T05:50:46;7.72;;;5.07;;
73296;SDS011;61524;50.938;11.396;2023-03-20T05:53:12;7.32;;;5.22;;
73296;SDS011;61524;50.938;11.396;2023-03-20T05:55:37;7.35;;;4.93;;
73296;SDS011;61524;50.938;11.396;2023-03-20T05:58:03;7.70;;;5.13;;
73296;SDS011;61524;50.938;11.396;2023-03-20T06:00:29;7.72;;;4.78;;
73296;SDS011;61524;50.938;11.396;2023-03-20T06:02:54;7.23;;;5.13;;
73296;SDS011;61524;50.938;11.396;2023-03-20T06:05:20;8.57;;;5.10;;
73296;SDS011;61524;50.938;11.396;2023-03-20T06:07:45;7.75;;;5.28;;
73296;SDS011;61524;50.938;11.396;2023-03-20T06:10:10;6.72;;;4.78;;
73296;SDS011;61524;50.938;11.396;2023-03-20T06:12:36;7.28;;;4.97;;
73296;SDS011;61524;50.938;11.396;2023-03-20T06:15:01;7.67;;;5.07;;
73296;SDS011;61524;50.938;11.396;2023-03-20T06:17:27;7.45;;;4.75;;
73296;SDS011;61524;50.938;11.396;2023-03-20T06:19:52;11.07;;;4.65;;
73296;SDS011;61524;50.938;11.396;2023-03-20T06:22:17;9.90;;;5.32;;
73296;SDS011;61524;50.938;11.396;2023-03-20T06:24:43;9.63;;;5.23;;
73296;SDS011;61524;50.938;11.396;2023-03-20T06:27:08;9.85;;;5.53;;
73296;SDS011;61524;50.938;11.396;2023-03-20T06:29:33;10.67;;;5.20;;
73296;SDS011;61524;50.938;11.396;2023-03-20T06:31:58;8.20;;;5.60;;
73296;SDS011;61524;50.938;11.396;2023-03-20T06:34:24;8.50;;;4.67;;
73296;SDS011;61524;50.938;11.396;2023-03-20T06:36:50;10.00;;;5.43;;
73296;SDS011;61524;50.938;11.396;2023-03-20T06:39:15;7.90;;;4.82;;
73296;SDS011;61524;50.938;11.396;2023-03-20T06:41:40;8.90;;;5.27;;
73296;SDS011;61524;50.938;11.396;2023-03-20T06:44:05;7.50;;;5.07;;
73296;SDS011;61524;50.938;11.396;2023-03-20T06:46:31;9.23;;;4.90;;
73296;SDS011;61524;50.938;11.396;2023-03-20T06:48:56;7.73;;;5.27;;
73296;SDS011;61524;50.938;11.396;2023-03-20T06:51:21;8.03;;;4.40;;
73296;SDS011;61524;50.938;11.396;2023-03-20T06:53:46;9.27;;;4.97;;
73296;SDS011;61524;50.938;11.396;2023-03-20T06:56:12;11.07;;;5.13;;
73296;SDS011;61524;50.938;11.396;2023-03-20T06:58:37;8.63;;;5.20;;
73296;SDS011;61524;50.938;11.396;2023-03-20T07:01:09;8.38;;;4.80;;
73296;SDS011;61524;50.938;11.396;2023-03-20T07:03:35;7.85;;;5.05;;
73296;SDS011;61524;50.938;11.396;2023-03-20T07:06:00;8.50;;;5.27;;
73296;SDS011;61524;50.938;11.396;2023-03-20T07:08:26;8.33;;;5.23;;
73296;SDS011;61524;50.938;11.396;2023-03-20T07:10:51;9.37;;;5.67;;
73296;SDS011;61524;50.938;11.396;2023-03-20T07:13:16;8.33;;;5.03;;
73296;SDS011;61524;50.938;11.396;2023-03-20T07:15:42;8.23;;;5.20;;
73296;SDS011;61524;50.938;11.396;2023-03-20T07:18:07;8.00;;;5.37;;
73296;SDS011;61524;50.938;11.396;2023-03-20T07:20:33;8.13;;;6.03;;
73296;SDS011;61524;50.938;11.396;2023-03-20T07:22:58;8.30;;;5.57;;
73296;SDS011;61524;50.938;11.396;2023-03-20T07:25:23;9.97;;;5.13;;
73296;SDS011;61524;50.938;11.396;2023-03-20T07:27:48;9.02;;;5.65;;
73296;SDS011;61524;50.938;11.396;2023-03-20T07:30:17;7.88;;;5.47;;
73296;SDS011;61524;50.938;11.396;2023-03-20T07:32:42;8.20;;;5.47;;
73296;SDS011;61524;50.938;11.396;2023-03-20T07:35:08;7.13;;;4.90;;
73296;SDS011;61524;50.938;11.396;2023-03-20T07:37:33;8.20;;;5.28;;
73296;SDS011;61524;50.938;11.396;2023-03-20T07:39:59;6.50;;;4.03;;
73296;SDS011;61524;50.938;11.396;2023-03-20T07:42:24;6.90;;;4.57;;
73296;SDS011;61524;50.938;11.396;2023-03-20T07:44:49;9.18;;;4.32;;
73296;SDS011;61524;50.938;11.396;2023-03-20T07:47:15;7.80;;;4.57;;
73296;SDS011;61524;50.938;11.396;2023-03-20T07:49:40;7.47;;;4.43;;
73296;SDS011;61524;50.938;11.396;2023-03-20T07:52:06;7.68;;;4.88;;
73296;SDS011;61524;50.938;11.396;2023-03-20T07:54:31;7.20;;;4.28;;
73296;SDS011;61524;50.938;11.396;2023-03-20T07:56:57;7.33;;;4.80;;
73296;SDS011;61524;50.938;11.396;2023-03-20T07:59:22;7.38;;;4.80;;
73296;SDS011;61524;50.938;11.396;2023-03-20T08:01:47;8.40;;;5.10;;
73296;SDS011;61524;50.938;11.396;2023-03-20T08:04:13;7.43;;;4.90;;
73296;SDS011;61524;50.938;11.396;2023-03-20T08:06:38;9.50;;;5.77;;
73296;SDS011;61524;50.938;11.396;2023-03-20T08:09:04;6.63;;;4.65;;
73296;SDS011;61524;50.938;11.396;2023-03-20T08:11:30;7.97;;;5.35;;
73296;SDS011;61524;50.938;11.396;2023-03-20T08:13:55;8.55;;;5.45;;
73296;SDS011;61524;50.938;11.396;2023-03-20T08:16:20;7.45;;;5.20;;
73296;SDS011;61524;50.938;11.396;2023-03-20T08:18:46;8.63;;;5.25;;
73296;SDS011;61524;50.938;11.396;2023-03-20T08:21:11;9.23;;;5.40;;
73296;SDS011;61524;50.938;11.396;2023-03-20T08:23:36;9.10;;;5.80;;
73296;SDS011;61524;50.938;11.396;2023-03-20T08:26:02;11.33;;;6.40;;
73296;SDS011;61524;50.938;11.396;2023-03-20T08:28:27;10.85;;;6.32;;
73296;SDS011;61524;50.938;11.396;2023-03-20T08:30:52;9.03;;;6.20;;
73296;SDS011;61524;50.938;11.396;2023-03-20T08:33:18;9.30;;;5.73;;
73296;SDS011;61524;50.938;11.396;2023-03-20T08:35:43;10.27;;;6.20;;
73296;SDS011;61524;50.938;11.396;2023-03-20T08:38:12;11.52;;;6.88;;
73296;SDS011;61524;50.938;11.396;2023-03-20T08:40:41;13.20;;;7.97;;
73296;SDS011;61524;50.938;11.396;2023-03-20T08:43:06;11.85;;;6.75;;
73296;SDS011;61524;50.938;11.396;2023-03-20T08:45:32;19.27;;;15.15;;
73296;SDS011;61524;50.938;11.396;2023-03-20T08:47:57;18.65;;;13.90;;
73296;SDS011;61524;50.938;11.396;2023-03-20T08:50:22;14.90;;;9.77;;
73296;SDS011;61524;50.938;11.396;2023-03-20T08:52:47;13.83;;;8.63;;
73296;SDS011;61524;50.938;11.396;2023-03-20T08:55:13;11.57;;;7.03;;
73296;SDS011;61524;50.938;11.396;2023-03-20T08:57:39;11.88;;;7.50;;
73296;SDS011;61524;50.938;11.396;2023-03-20T09:00:05;16.15;;;9.30;;
73296;SDS011;61524;50.938;11.396;2023-03-20T09:02:31;9.80;;;6.00;;
73296;SDS011;61524;50.938;11.396;2023-03-20T09:04:56;9.88;;;6.43;;
73296;SDS011;61524;50.938;11.396;2023-03-20T09:07:22;11.30;;;6.88;;
73296;SDS011;61524;50.938;11.396;2023-03-20T09:09:47;12.55;;;7.10;;
73296;SDS011;61524;50.938;11.396;2023-03-20T09:12:12;11.90;;;7.07;;
73296;SDS011;61524;50.938;11.396;2023-03-20T09:14:37;11.10;;;6.87;;
73296;SDS011;61524;50.938;11.396;2023-03-20T09:17:03;9.20;;;6.50;;
73296;SDS011;61524;50.938;11.396;2023-03-20T09:19:28;9.63;;;5.93;;
73296;SDS011;61524;50.938;11.396;2023-03-20T09:21:53;9.40;;;6.13;;
73296;SDS011;61524;50.938;11.396;2023-03-20T09:24:19;10.38;;;6.63;;
73296;SDS011;61524;50.938;11.396;2023-03-20T09:26:44;10.60;;;6.68;;
73296;SDS011;61524;50.938;11.396;2023-03-20T09:29:10;10.17;;;6.80;;
73296;SDS011;61524;50.938;11.396;2023-03-20T09:31:35;12.02;;;7.43;;
73296;SDS011;61524;50.938;11.396;2023-03-20T09:34:00;12.00;;;7.22;;
73296;SDS011;61524;50.938;11.396;2023-03-20T09:36:25;12.33;;;7.27;;
73296;SDS011;61524;50.938;11.396;2023-03-20T09:38:51;9.77;;;6.93;;
73296;SDS011;61524;50.938;11.396;2023-03-20T09:41:19;13.17;;;7.83;;
73296;SDS011;61524;50.938;11.396;2023-03-20T09:51:36;16.92;;;9.70;;
73296;SDS011;61524;50.938;11.396;2023-03-20T09:54:10;12.82;;;7.63;;
73296;SDS011;61524;50.938;11.396;2023-03-20T09:56:38;13.40;;;7.72;;
73296;SDS011;61524;50.938;11.396;2023-03-20T09:59:04;12.35;;;7.95;;
73296;SDS011;61524;50.938;11.396;2023-03-20T10:03:56;13.32;;;8.07;;
73296;SDS011;61524;50.938;11.396;2023-03-20T10:06:22;13.68;;;8.10;;
73296;SDS011;61524;50.938;11.396;2023-03-20T10:08:47;18.67;;;9.25;;
73296;SDS011;61524;50.938;11.396;2023-03-20T10:19:27;14.48;;;8.90;;
73296;SDS011;61524;50.938;11.396;2023-03-20T10:24:47;16.85;;;9.77;;
73296;SDS011;61524;50.938;11.396;2023-03-20T10:27:33;18.50;;;10.00;;
73296;SDS011;61524;50.938;11.396;2023-03-20T10:32:35;23.83;;;12.00;;
73296;SDS011;61524;50.938;11.396;2023-03-20T10:35:11;21.75;;;11.77;;
73296;SDS011;61524;50.938;11.396;2023-03-20T10:42:38;18.55;;;11.02;;
73296;SDS011;61524;50.938;11.396;2023-03-20T10:45:14;18.75;;;10.18;;
73296;SDS011;61524;50.938;11.396;2023-03-20T10:47:43;16.65;;;9.45;;
73296;SDS011;61524;50.938;11.396;2023-03-20T10:50:15;19.98;;;11.18;;
73296;SDS011;61524;50.938;11.396;2023-03-20T10:52:41;18.25;;;10.15;;
73296;SDS011;61524;50.938;11.396;2023-03-20T10:55:09;17.40;;;10.25;;
73296;SDS011;61524;50.938;11.396;2023-03-20T10:57:37;18.88;;;9.63;;
73296;SDS011;61524;50.938;11.396;2023-03-20T11:00:06;20.90;;;10.95;;
73296;SDS011;61524;50.938;11.396;2023-03-20T11:02:35;20.48;;;11.57;;
73296;SDS011;61524;50.938;11.396;2023-03-20T11:05:19;18.13;;;11.13;;
73296;SDS011;61524;50.938;11.396;2023-03-20T11:07:45;19.75;;;11.48;;
73296;SDS011;61524;50.938;11.396;2023-03-20T11:10:12;20.88;;;11.60;;
73296;SDS011;61524;50.938;11.396;2023-03-20T11:15:11;24.27;;;11.13;;
73296;SDS011;61524;50.938;11.396;2023-03-20T11:17:38;18.52;;;10.18;;
73296;SDS011;61524;50.938;11.396;2023-03-20T11:20:04;21.00;;;11.25;;
73296;SDS011;61524;50.938;11.396;2023-03-20T11:22:31;18.52;;;10.73;;
73296;SDS011;61524;50.938;11.396;2023-03-20T11:24:57;19.50;;;10.63;;
73296;SDS011;61524;50.938;11.396;2023-03-20T11:27:26;17.42;;;9.50;;
73296;SDS011;61524;50.938;11.396;2023-03-20T11:29:52;17.92;;;9.77;;
73296;SDS011;61524;50.938;11.396;2023-03-20T11:34:46;16.50;;;9.30;;
73296;SDS011;61524;50.938;11.396;2023-03-20T11:37:25;22.08;;;12.13;;
73296;SDS011;61524;50.938;11.396;2023-03-20T11:39:56;19.00;;;10.18;;
73296;SDS011;61524;50.938;11.396;2023-03-20T11:42:24;21.50;;;10.48;;
73296;SDS011;61524;50.938;11.396;2023-03-20T11:47:17;18.35;;;9.38;;
73296;SDS011;61524;50.938;11.396;2023-03-20T11:49:45;19.27;;;9.98;;
73296;SDS011;61524;50.938;11.396;2023-03-20T11:52:14;18.88;;;9.55;;
73296;SDS011;61524;50.938;11.396;2023-03-20T11:54:44;18.58;;;9.70;;
73296;SDS011;61524;50.938;11.396;2023-03-20T11:57:25;17.13;;;9.68;;
73296;SDS011;61524;50.938;11.396;2023-03-20T11:59:52;17.90;;;10.55;;
73296;SDS011;61524;50.938;11.396;2023-03-20T12:02:19;17.42;;;10.23;;
73296;SDS011;61524;50.938;11.396;2023-03-20T12:04:46;20.02;;;10.63;;
73296;SDS011;61524;50.938;11.396;2023-03-20T12:07:12;19.85;;;10.65;;
73296;SDS011;61524;50.938;11.396;2023-03-20T12:09:45;18.23;;;10.95;;
73296;SDS011;61524;50.938;11.396;2023-03-20T12:20:15;19.85;;;9.38;;
73296;SDS011;61524;50.938;11.396;2023-03-20T12:22:59;18.42;;;9.57;;
73296;SDS011;61524;50.938;11.396;2023-03-20T12:25:26;17.13;;;10.23;;
73296;SDS011;61524;50.938;11.396;2023-03-20T12:28:00;18.30;;;9.57;;
73296;SDS011;61524;50.938;11.396;2023-03-20T12:30:29;17.17;;;9.65;;
73296;SDS011;61524;50.938;11.396;2023-03-20T12:37:53;15.70;;;7.93;;
73296;SDS011;61524;50.938;11.396;2023-03-20T12:40:18;16.27;;;8.02;;
73296;SDS011;61524;50.938;11.396;2023-03-20T12:45:19;14.88;;;8.13;;
73296;SDS011;61524;50.938;11.396;2023-03-20T12:55:20;13.60;;;6.85;;
73296;SDS011;61524;50.938;11.396;2023-03-20T12:57:56;13.60;;;7.30;;
73296;SDS011;61524;50.938;11.396;2023-03-20T13:00:25;15.68;;;7.43;;
73296;SDS011;61524;50.938;11.396;2023-03-20T13:10:38;13.07;;;7.38;;
73296;SDS011;61524;50.938;11.396;2023-03-20T13:13:13;14.93;;;6.88;;
73296;SDS011;61524;50.938;11.396;2023-03-20T13:15:57;12.63;;;6.70;;
73296;SDS011;61524;50.938;11.396;2023-03-20T13:20:54;17.42;;;7.32;;
73296;SDS011;61524;50.938;11.396;2023-03-20T13:23:22;13.88;;;6.90;;
73296;SDS011;61524;50.938;11.396;2023-03-20T13:38:37;12.68;;;6.28;;
73296;SDS011;61524;50.938;11.396;2023-03-20T13:41:05;14.65;;;6.90;;
73296;SDS011;61524;50.938;11.396;2023-03-20T13:46:09;11.00;;;6.23;;
73296;SDS011;61524;50.938;11.396;2023-03-20T13:48:36;12.38;;;6.22;;
73296;SDS011;61524;50.938;11.396;2023-03-20T13:58:51;11.45;;;4.82;;
73296;SDS011;61524;50.938;11.396;2023-03-20T14:01:23;9.45;;;4.57;;
73296;SDS011;61524;50.938;11.396;2023-03-20T14:03:49;9.63;;;4.72;;
73296;SDS011;61524;50.938;11.396;2023-03-20T14:08:42;12.03;;;4.90;;
73296;SDS011;61524;50.938;11.396;2023-03-20T14:13:37;9.43;;;4.82;;
73296;SDS011;61524;50.938;11.396;2023-03-20T14:16:04;7.43;;;3.50;;
73296;SDS011;61524;50.938;11.396;2023-03-20T14:18:31;7.55;;;3.67;;
73296;SDS011;61524;50.938;11.396;2023-03-20T14:20:57;7.82;;;3.95;;
73296;SDS011;61524;50.938;11.396;2023-03-20T14:23:31;8.73;;;3.95;;
73296;SDS011;61524;50.938;11.396;2023-03-20T14:25:56;8.13;;;4.25;;
73296;SDS011;61524;50.938;11.396;2023-03-20T14:28:27;8.93;;;4.38;;
73296;SDS011;61524;50.938;11.396;2023-03-20T14:44:29;6.25;;;3.30;;
73296;SDS011;61524;50.938;11.396;2023-03-20T14:52:17;7.95;;;3.67;;
73296;SDS011;61524;50.938;11.396;2023-03-20T14:54:50;6.45;;;3.30;;
73296;SDS011;61524;50.938;11.396;2023-03-20T14:57:17;6.38;;;2.97;;
73296;SDS011;61524;50.938;11.396;2023-03-20T14:59:46;7.28;;;3.50;;
73296;SDS011;61524;50.938;11.396;2023-03-20T15:02:45;6.90;;;3.28;;
73296;SDS011;61524;50.938;11.396;2023-03-20T15:05:03;6.65;;;3.30;;
73296;SDS011;61524;50.938;11.396;2023-03-20T15:07:29;6.95;;;3.38;;
73296;SDS011;61524;50.938;11.396;2023-03-20T15:09:56;8.45;;;3.80;;
73296;SDS011;61524;50.938;11.396;2023-03-20T15:12:24;7.03;;;3.10;;
73296;SDS011;61524;50.938;11.396;2023-03-20T15:15:21;7.85;;;3.72;;
73296;SDS011;61524;50.938;11.396;2023-03-20T15:17:36;8.30;;;4.35;;
73296;SDS011;61524;50.938;11.396;2023-03-20T15:20:06;7.80;;;3.35;;
73296;SDS011;61524;50.938;11.396;2023-03-20T15:22:34;9.02;;;3.97;;
73296;SDS011;61524;50.938;11.396;2023-03-20T15:25:14;7.32;;;3.38;;
73296;SDS011;61524;50.938;11.396;2023-03-20T15:27:40;8.73;;;4.38;;
73296;SDS011;61524;50.938;11.396;2023-03-20T15:30:05;7.80;;;3.50;;
73296;SDS011;61524;50.938;11.396;2023-03-20T15:32:31;8.52;;;4.18;;
73296;SDS011;61524;50.938;11.396;2023-03-20T15:34:57;9.02;;;3.53;;
73296;SDS011;61524;50.938;11.396;2023-03-20T15:37:22;8.10;;;3.93;;
73296;SDS011;61524;50.938;11.396;2023-03-20T15:39:49;8.23;;;3.47;;
73296;SDS011;61524;50.938;11.396;2023-03-20T15:42:17;7.75;;;3.78;;
73296;SDS011;61524;50.938;11.396;2023-03-20T15:44:44;9.85;;;3.88;;
73296;SDS011;61524;50.938;11.396;2023-03-20T15:47:15;6.82;;;3.45;;
73296;SDS011;61524;50.938;11.396;2023-03-20T15:49:47;7.50;;;3.30;;
73296;SDS011;61524;50.938;11.396;2023-03-20T15:54:39;10.93;;;4.20;;
73296;SDS011;61524;50.938;11.396;2023-03-20T15:57:05;8.48;;;4.05;;
73296;SDS011;61524;50.938;11.396;2023-03-20T15:59:31;12.43;;;4.32;;
73296;SDS011;61524;50.938;11.396;2023-03-20T16:01:57;7.93;;;4.32;;
73296;SDS011;61524;50.938;11.396;2023-03-20T16:04:23;13.18;;;5.03;;
73296;SDS011;61524;50.938;11.396;2023-03-20T16:06:53;9.13;;;4.18;;
73296;SDS011;61524;50.938;11.396;2023-03-20T16:09:18;8.23;;;4.25;;
73296;SDS011;61524;50.938;11.396;2023-03-20T16:11:45;7.72;;;4.00;;
73296;SDS011;61524;50.938;11.396;2023-03-20T16:14:21;9.52;;;4.00;;
73296;SDS011;61524;50.938;11.396;2023-03-20T16:16:48;9.40;;;4.68;;
73296;SDS011;61524;50.938;11.396;2023-03-20T16:19:14;8.80;;;3.70;;
73296;SDS011;61524;50.938;11.396;2023-03-20T16:21:40;8.45;;;4.00;;
73296;SDS011;61524;50.938;11.396;2023-03-20T16:24:08;8.20;;;4.28;;
73296;SDS011;61524;50.938;11.396;2023-03-20T16:26:36;8.05;;;3.50;;
73296;SDS011;61524;50.938;11.396;2023-03-20T16:29:02;8.02;;;3.97;;
73296;SDS011;61524;50.938;11.396;2023-03-20T16:31:28;8.32;;;4.00;;
73296;SDS011;61524;50.938;11.396;2023-03-20T16:33:59;7.97;;;3.78;;
73296;SDS011;61524;50.938;11.396;2023-03-20T16:36:29;8.60;;;4.10;;
73296;SDS011;61524;50.938;11.396;2023-03-20T16:41:35;8.95;;;3.80;;
73296;SDS011;61524;50.938;11.396;2023-03-20T16:44:11;9.02;;;4.55;;
73296;SDS011;61524;50.938;11.396;2023-03-20T16:51:49;10.25;;;4.18;;
73296;SDS011;61524;50.938;11.396;2023-03-20T16:54:17;10.00;;;4.05;;
73296;SDS011;61524;50.938;11.396;2023-03-20T16:56:43;10.00;;;3.65;;
73296;SDS011;61524;50.938;11.396;2023-03-20T16:59:16;8.65;;;3.53;;
73296;SDS011;61524;50.938;11.396;2023-03-20T17:01:42;10.77;;;4.07;;
73296;SDS011;61524;50.938;11.396;2023-03-20T17:04:13;8.32;;;4.07;;
73296;SDS011;61524;50.938;11.396;2023-03-20T17:06:48;8.55;;;3.78;;
73296;SDS011;61524;50.938;11.396;2023-03-20T17:09:16;7.70;;;4.13;;
73296;SDS011;61524;50.938;11.396;2023-03-20T17:11:50;8.60;;;4.07;;
73296;SDS011;61524;50.938;11.396;2023-03-20T17:14:19;8.90;;;4.35;;
73296;SDS011;61524;50.938;11.396;2023-03-20T17:16:45;10.13;;;4.32;;
73296;SDS011;61524;50.938;11.396;2023-03-20T17:19:17;8.70;;;4.60;;
73296;SDS011;61524;50.938;11.396;2023-03-20T17:21:42;9.30;;;4.65;;